WetterOnline ( http://www.wetteronline.de )

Wetter aktuell Frankfurt am Main

Aktuelles Wetter: Offenbach (119m)

6-stündlich | Neueste Meldungen
Ortszeit Temperatur Wetter
Sa, 22.09. 14:00 17.5° C bewölkt
Sa, 22.09. 8:00 10.4° C bedeckt
Sa, 22.09. 2:00 10.4° C wolkenlos
Fr, 21.09. 20:00 14.0° C bedeckt
Fr, 21.09. 14:00 23.9° C bedeckt
Fr, 21.09. 8:00 13.8° C wolkig
Fr, 21.09. 2:00 16.4° C wolkig
Do, 20.09. 20:00 22.4° C wolkig
Ortszeit Temperatur Wetter
Sa, 22.09. 14:30 17.2° C wolkig
Sa, 22.09. 14:20 17.2° C wolkig
Sa, 22.09. 14:10 17.5° C wolkig
Sa, 22.09. 14:00 17.5° C bewölkt
Sa, 22.09. 13:50 17.5° C bewölkt
Sa, 22.09. 13:40 17.2° C bewölkt
Sa, 22.09. 13:30 17.3° C wolkig
Sa, 22.09. 13:00 16.6° C bewölkt
Sa, 22.09. 12:30 16.3° C wolkig
Sa, 22.09. 12:00 16.1° C bedeckt
Sa, 22.09. 11:30 14.4° C bedeckt
Ortszeit Relative Feuchte Sichtweite
Sa, 22.09. 14:00 50% 35 km
Sa, 22.09. 8:00 72% 50 km
Sa, 22.09. 2:00 70% 55 km
Fr, 21.09. 20:00 70% 60 km
Fr, 21.09. 14:00 47% 45 km
Fr, 21.09. 8:00 89% 29 km
Fr, 21.09. 2:00 79% 35 km
Do, 20.09. 20:00 54% 35 km
Ortszeit Relative Feuchte Sichtweite
Sa, 22.09. 14:30 48% 45 km
Sa, 22.09. 14:20 48% -
Sa, 22.09. 14:10 49% -
Sa, 22.09. 14:00 50% 35 km
Sa, 22.09. 13:50 50% -
Sa, 22.09. 13:40 53% -
Sa, 22.09. 13:30 51% 40 km
Sa, 22.09. 13:00 52% 40 km
Sa, 22.09. 12:30 55% 30 km
Sa, 22.09. 12:00 56% 45 km
Sa, 22.09. 11:30 61% 40 km
Ortszeit Niederschlagsmenge Niederschlagsart
Sa, 22.09. 14:00 0.0 l/m2 in 6 Std. -
Sa, 22.09. 8:00 0.0 l/m2 in 12 Std. -
Sa, 22.09. 2:00 0.0 l/m2 in 6 Std. -
Fr, 21.09. 20:00 4 l/m2 in 12 Std. Regen
Fr, 21.09. 14:00 0.1 l/m2 in 6 Std. Regen
Fr, 21.09. 8:00 0.0 l/m2 in 12 Std. -
Fr, 21.09. 2:00 0.0 l/m2 in 6 Std. -
Do, 20.09. 20:00 0.0 l/m2 in 12 Std. -
Ortszeit Niederschlagsmenge Niederschlagsart
Sa, 22.09. 14:30 0.0 l/m2 in 1 Std. -
Sa, 22.09. 14:20 keine Meldung -
Sa, 22.09. 14:10 keine Meldung -
Sa, 22.09. 14:00 0.0 l/m2 in 1 Std. -
Sa, 22.09. 13:50 keine Meldung -
Sa, 22.09. 13:40 keine Meldung -
Sa, 22.09. 13:30 0.0 l/m2 in 1 Std. -
Sa, 22.09. 13:00 0.0 l/m2 in 1 Std. -
Sa, 22.09. 12:30 0.0 l/m2 in 1 Std. -
Sa, 22.09. 12:00 0.0 l/m2 in 1 Std. -
Sa, 22.09. 11:30 0.0 l/m2 in 1 Std. -
Ortszeit Stärke Spitze Richtung
km/h Bft. km/h Grad Sektor
Sa, 22.09. 14:00 14 3 32 240° SW
Sa, 22.09. 8:00 7 2 25 230° SW
Sa, 22.09. 2:00 4 1 29 200° S
Fr, 21.09. 20:00 11 2 50 250° W
Fr, 21.09. 14:00 14 3 50 220° SW
Fr, 21.09. 8:00 0 0 11 - -
Fr, 21.09. 2:00 4 1 14 200° S
Do, 20.09. 20:00 6 1 33 180° S
Ortszeit Stärke Spitze Richtung
km/h Bft. km/h Grad Sektor
Sa, 22.09. 14:30 13 3 30 230° SW
Sa, 22.09. 14:20 13 3 - 230° SW
Sa, 22.09. 14:10 14 3 - 220° SW
Sa, 22.09. 14:00 14 3 32 240° SW
Sa, 22.09. 13:50 14 3 - 240° SW
Sa, 22.09. 13:40 14 3 - 230° SW
Sa, 22.09. 13:30 13 3 31 230° SW
Sa, 22.09. 13:00 11 2 32 230° SW
Sa, 22.09. 12:30 15 3 26 240° SW
Sa, 22.09. 12:00 13 3 26 200° S
Sa, 22.09. 11:30 11 2 24 220° SW
Ortszeit Untergrenze Bedeckung Gattung
total tief tief mittel hoch
Sa, 22.09. 14:00 1200 m 8/8 4/8 - - -
Sa, 22.09. 8:00 5400 m 8/8 8/8 - - -
Sa, 22.09. 2:00 - 0/8 0/8 - - -
Fr, 21.09. 20:00 5100 m 8/8 8/8 - - -
Fr, 21.09. 14:00 3000 m 8/8 8/8 - - -
Fr, 21.09. 8:00 7200 m 8/8 0/8 - - -
Fr, 21.09. 2:00 8700 m 8/8 0/8 - - -
Do, 20.09. 20:00 10500 m 8/8 0/8 - - -
Ortszeit Bedeckungsgrad in Achtel und Wolkenuntergrenze
Sa, 22.09. 14:30 2(1410m) 8(4200m) 8(5400m)
Sa, 22.09. 14:20 2(1410m) 8(4200m) 8(5400m)
Sa, 22.09. 14:10 1(1350m) 8(4200m) 8(5700m)
Sa, 22.09. 14:00 4(1200m) 8(4200m) 8(5700m)
Sa, 22.09. 13:50 4(1200m) 8(4200m) 8(5700m)
Sa, 22.09. 13:40 5(1170m) 8(4200m) 8(5700m)
Sa, 22.09. 13:30 3(1170m) 8(4200m) 8(6300m)
Sa, 22.09. 13:00 3(1080m) 6(1800m) 8(4500m)
Sa, 22.09. 12:30 3(1260m) 8(4200m) 8(6900m)
Sa, 22.09. 12:00 8(4200m) 8(6000m) 8(6300m)
Sa, 22.09. 11:30 8(4200m) 8(6600m) 8(7200m)
Ortszeit Luftdruck NN (hPa) Tendenz (hPa in 3 Std.)
Sa, 22.09. 14:00 1021 - 1,7
Sa, 22.09. 8:00 1023 + 1,2
Sa, 22.09. 2:00 1020 + 1,8
Fr, 21.09. 20:00 1015 + 3,2
Fr, 21.09. 14:00 1008 - 1,0
Fr, 21.09. 8:00 1010 - 1,5
Fr, 21.09. 2:00 1013 - 1,4
Do, 20.09. 20:00 1015 - 1,2
Ortszeit Luftdruck NN (hPa) Tendenz (hPa in 3 Std.)
Sa, 22.09. 14:30 1021 - 2,1
Sa, 22.09. 14:20 1021 keine Meldung
Sa, 22.09. 14:10 1021 keine Meldung
Sa, 22.09. 14:00 1021 - 1,7
Sa, 22.09. 13:50 1021 keine Meldung
Sa, 22.09. 13:40 1022 keine Meldung
Sa, 22.09. 13:30 1022 - 1,4
Sa, 22.09. 13:00 1022 - 0,8
Sa, 22.09. 12:30 1023 - 0,3
Sa, 22.09. 12:00 1023 - 0,3
Sa, 22.09. 11:30 1023 + 0,6
Ortszeit Schneehöhe (cm)
Sa, 22.09. 14:00 -
Sa, 22.09. 8:00 -
Sa, 22.09. 2:00 -
Fr, 21.09. 20:00 -
Fr, 21.09. 14:00 -
Fr, 21.09. 8:00 -
Fr, 21.09. 2:00 -
Do, 20.09. 20:00 -
Ortszeit Schneehöhe (cm)
Sa, 22.09. 14:30 -
Sa, 22.09. 14:20 -
Sa, 22.09. 14:10 -
Sa, 22.09. 14:00 -
Sa, 22.09. 13:50 -
Sa, 22.09. 13:40 -
Sa, 22.09. 13:30 -
Sa, 22.09. 13:00 -
Sa, 22.09. 12:30 -
Sa, 22.09. 12:00 -
Sa, 22.09. 11:30 -
Link zu dieser Seite / Seite empfehlen

Das Wetter in ...